WetterOnline ( http://www.wetteronline.de )

Wetter aktuell Norderney

Aktuelles Wetter: Norderney (16m)

6-stündlich | Neueste Meldungen
Ortszeit Temperatur Wetter
So, 22.07. 2:00 19.1° C wolkig
Sa, 21.07. 20:00 20.5° C leicht bewölkt
Sa, 21.07. 14:00 22.4° C bedeckt
Sa, 21.07. 8:00 19.5° C wolkig
Sa, 21.07. 2:00 18.6° C bewölkt
Fr, 20.07. 20:00 19.3° C leicht bewölkt
Fr, 20.07. 14:00 20.6° C leicht bewölkt
Fr, 20.07. 8:00 18.0° C bedeckt
Ortszeit Temperatur Wetter
So, 22.07. 2:30 19.1° C bewölkt
So, 22.07. 2:20 19.1° C bewölkt
So, 22.07. 2:10 19.2° C bewölkt
So, 22.07. 2:00 19.1° C wolkig
So, 22.07. 1:40 19.0° C leicht bewölkt
So, 22.07. 1:30 19.4° C bewölkt
So, 22.07. 1:00 19.7° C bedeckt
So, 22.07. 0:30 19.6° C bedeckt
So, 22.07. 0:00 19.6° C bewölkt
Sa, 21.07. 23:30 19.5° C bewölkt
Ortszeit Relative Feuchte Sichtweite
So, 22.07. 2:00 81% 45 km
Sa, 21.07. 20:00 74% 35 km
Sa, 21.07. 14:00 63% 30 km
Sa, 21.07. 8:00 78% 35 km
Sa, 21.07. 2:00 79% 40 km
Fr, 20.07. 20:00 67% 45 km
Fr, 20.07. 14:00 64% 50 km
Fr, 20.07. 8:00 72% 60 km
Ortszeit Relative Feuchte Sichtweite
So, 22.07. 2:30 82% 50 km
So, 22.07. 2:20 82% -
So, 22.07. 2:10 82% -
So, 22.07. 2:00 81% 45 km
So, 22.07. 1:40 82% -
So, 22.07. 1:30 80% 45 km
So, 22.07. 1:00 74% 45 km
So, 22.07. 0:30 78% 40 km
So, 22.07. 0:00 78% 45 km
Sa, 21.07. 23:30 76% 45 km
Ortszeit Niederschlagsmenge Niederschlagsart
So, 22.07. 2:00 0.0 l/m2 in 6 Std. -
Sa, 21.07. 20:00 0.0 l/m2 in 12 Std. -
Sa, 21.07. 14:00 0.0 l/m2 in 6 Std. -
Sa, 21.07. 8:00 0.0 l/m2 in 12 Std. -
Sa, 21.07. 2:00 0.0 l/m2 in 6 Std. -
Fr, 20.07. 20:00 0.0 l/m2 in 12 Std. -
Fr, 20.07. 14:00 0.0 l/m2 in 6 Std. -
Fr, 20.07. 8:00 0.0 l/m2 in 12 Std. -
Ortszeit Niederschlagsmenge Niederschlagsart
So, 22.07. 2:30 0.0 l/m2 in 1 Std. -
So, 22.07. 2:20 keine Meldung -
So, 22.07. 2:10 keine Meldung -
So, 22.07. 2:00 0.0 l/m2 in 1 Std. -
So, 22.07. 1:40 keine Meldung -
So, 22.07. 1:30 0.0 l/m2 in 1 Std. -
So, 22.07. 1:00 0.0 l/m2 in 1 Std. -
So, 22.07. 0:30 0.0 l/m2 in 1 Std. -
So, 22.07. 0:00 0.0 l/m2 in 1 Std. -
Sa, 21.07. 23:30 0.0 l/m2 in 1 Std. -
Ortszeit Stärke Spitze Richtung
km/h Bft. km/h Grad Sektor
So, 22.07. 2:00 22 4 29 350° N
Sa, 21.07. 20:00 22 4 33 50° NO
Sa, 21.07. 14:00 26 4 35 60° NO
Sa, 21.07. 8:00 18 3 36 60° NO
Sa, 21.07. 2:00 28 4 39 50° NO
Fr, 20.07. 20:00 33 5 39 40° NO
Fr, 20.07. 14:00 31 5 37 50° NO
Fr, 20.07. 8:00 13 3 26 80° O
Ortszeit Stärke Spitze Richtung
km/h Bft. km/h Grad Sektor
So, 22.07. 2:30 22 4 26 350° N
So, 22.07. 2:20 22 4 - 350° N
So, 22.07. 2:10 24 4 - 350° N
So, 22.07. 2:00 22 4 25 350° N
So, 22.07. 1:40 22 4 - 340° N
So, 22.07. 1:30 19 3 22 360° N
So, 22.07. 1:00 14 3 25 30° NO
So, 22.07. 0:30 18 3 25 20° N
So, 22.07. 0:00 18 3 25 30° NO
Sa, 21.07. 23:30 18 3 25 50° NO
Ortszeit Untergrenze Bedeckung Gattung
total tief tief mittel hoch
So, 22.07. 2:00 1800 m 5/8 5/8 - - -
Sa, 21.07. 20:00 2700 m 4/8 1/8 - - -
Sa, 21.07. 14:00 2400 m 8/8 8/8 - - -
Sa, 21.07. 8:00 2400 m 6/8 6/8 - - -
Sa, 21.07. 2:00 2100 m 7/8 7/8 - - -
Fr, 20.07. 20:00 3300 m 1/8 - - - -
Fr, 20.07. 14:00 2100 m 8/8 1/8 - - -
Fr, 20.07. 8:00 2100 m 8/8 8/8 - - -
Ortszeit Bedeckungsgrad in Achtel und Wolkenuntergrenze
So, 22.07. 2:30 6(1800m) 7(2100m) 7(2700m)
So, 22.07. 2:20 6(1800m) 7(2100m) 7(2700m)
So, 22.07. 2:10 6(1800m) 7(2100m) 7(2700m)
So, 22.07. 2:00 5(1800m) 5(3000m) 5(6900m)
So, 22.07. 1:40 2(1800m) 3(3000m) 4(6900m)
So, 22.07. 1:30 5(2100m) 6(2700m) 7(6900m)
So, 22.07. 1:00 7(1800m) 8(2700m) 8(3300m)
So, 22.07. 0:30 7(2100m) 8(2700m)
So, 22.07. 0:00 7(2700m) 7(7500m) 7(7200m)
Sa, 21.07. 23:30 6(2400m) 8(7200m)
Ortszeit Luftdruck NN (hPa) Tendenz (hPa in 3 Std.)
So, 22.07. 2:00 1013 + 0,2
Sa, 21.07. 20:00 1012 - 0,4
Sa, 21.07. 14:00 1012 - 0,2
Sa, 21.07. 8:00 1012 - 0,1
Sa, 21.07. 2:00 1013 - 0,3
Fr, 20.07. 20:00 1014 - 1,2
Fr, 20.07. 14:00 1016 - 0,7
Fr, 20.07. 8:00 1016 - 0,8
Ortszeit Luftdruck NN (hPa) Tendenz (hPa in 3 Std.)
So, 22.07. 2:30 1013 + 0,3
So, 22.07. 2:20 1013 keine Meldung
So, 22.07. 2:10 1013 keine Meldung
So, 22.07. 2:00 1013 + 0,2
So, 22.07. 1:40 1013 keine Meldung
So, 22.07. 1:30 1013 + 0,1
So, 22.07. 1:00 1013 + 0,4
So, 22.07. 0:30 1013 + 0,4
So, 22.07. 0:00 1013 + 0,4
Sa, 21.07. 23:30 1012 + 0,6
Ortszeit Schneehöhe (cm)
So, 22.07. 2:00 -
Sa, 21.07. 20:00 -
Sa, 21.07. 14:00 -
Sa, 21.07. 8:00 -
Sa, 21.07. 2:00 -
Fr, 20.07. 20:00 -
Fr, 20.07. 14:00 -
Fr, 20.07. 8:00 -
Ortszeit Schneehöhe (cm)
So, 22.07. 2:30 -
So, 22.07. 2:20 -
So, 22.07. 2:10 -
So, 22.07. 2:00 -
So, 22.07. 1:40 -
So, 22.07. 1:30 -
So, 22.07. 1:00 -
So, 22.07. 0:30 -
So, 22.07. 0:00 -
Sa, 21.07. 23:30 -
Link zu dieser Seite / Seite empfehlen

Das Wetter in ...